createdAt,value
2018-11-22T12:17:27.538Z,68.58
2018-11-22T12:22:30.007Z,68.72
2018-11-22T12:27:32.457Z,67.86
2018-11-22T12:32:39.461Z,67.54
2018-11-22T12:37:46.884Z,67.32
2018-11-22T12:42:49.820Z,67.90
2018-11-22T12:47:52.233Z,67.65
2018-11-22T12:52:54.661Z,68.20
2018-11-22T12:57:57.041Z,67.55
2018-11-22T13:02:59.431Z,67.47
2018-11-22T13:08:01.990Z,67.33
2018-11-22T13:13:04.771Z,67.11
2018-11-22T13:18:07.249Z,67.58
2018-11-22T13:23:09.881Z,67.48
2018-11-22T13:28:12.274Z,66.99
2018-11-22T13:33:14.817Z,67.00
2018-11-22T13:38:17.228Z,66.32
2018-11-22T13:43:19.715Z,66.92
2018-11-22T13:48:22.403Z,66.62
2018-11-22T13:53:24.883Z,66.11
2018-11-22T13:58:27.340Z,65.41
2018-11-22T14:03:29.787Z,65.96
2018-11-22T14:08:32.271Z,65.21
2018-11-22T14:13:34.653Z,65.69
2018-11-22T14:18:37.335Z,65.77
2018-11-22T14:23:40.917Z,66.47
2018-11-22T14:28:43.285Z,67.47
2018-11-22T14:33:45.691Z,68.75
2018-11-22T14:38:48.101Z,69.08
2018-11-22T14:43:50.495Z,69.57
2018-11-22T14:48:53.770Z,69.44
2018-11-22T14:53:55.768Z,70.14
2018-11-22T14:58:58.291Z,70.11
2018-11-22T15:04:00.805Z,70.50
2018-11-22T15:09:05.638Z,70.44
2018-11-22T15:14:08.182Z,71.17
2018-11-22T15:19:10.572Z,70.70
2018-11-22T15:24:13.221Z,70.65
2018-11-22T15:29:15.645Z,71.01
2018-11-22T15:34:18.027Z,70.75
2018-11-22T15:39:20.380Z,71.41
2018-11-22T15:44:23.042Z,71.62
2018-11-22T15:49:25.533Z,71.26
2018-11-22T15:54:27.887Z,71.69
2018-11-22T15:59:31.138Z,72.23
2018-11-22T16:04:33.605Z,71.28
2018-11-22T16:09:35.953Z,71.66
2018-11-22T16:14:38.437Z,72.09
2018-11-22T16:19:41.057Z,72.14
2018-11-22T16:24:43.495Z,72.93
2018-11-22T16:29:45.899Z,72.93
2018-11-22T16:34:49.683Z,74.37
2018-11-22T16:39:54.202Z,73.65
2018-11-22T16:44:56.986Z,73.48
2018-11-22T16:50:06.053Z,73.40
2018-11-22T16:55:09.126Z,74.09
2018-11-22T17:00:20.226Z,73.94
2018-11-22T17:05:23.783Z,74.89
2018-11-22T17:10:29.861Z,75.14
2018-11-22T17:15:35.717Z,75.03
2018-11-22T17:20:38.405Z,75.30
2018-11-22T17:25:40.841Z,75.51
2018-11-22T17:30:44.376Z,75.54
2018-11-22T17:35:47.032Z,75.41
2018-11-22T17:40:50.948Z,75.83
2018-11-22T17:45:54.064Z,75.66
2018-11-22T17:50:56.479Z,75.68
2018-11-22T17:55:59.101Z,75.53
2018-11-22T18:01:01.662Z,75.56
2018-11-22T18:06:04.306Z,75.52
2018-11-22T18:11:06.781Z,75.85
2018-11-22T18:16:09.478Z,76.19
2018-11-22T18:21:12.042Z,76.29
2018-11-22T18:26:14.494Z,76.89
2018-11-22T18:31:17.058Z,77.03
2018-11-22T18:36:20.054Z,76.96
2018-11-22T18:41:22.427Z,76.69
2018-11-22T18:46:25.517Z,76.68
2018-11-22T18:51:28.217Z,76.96
2018-11-22T18:56:36.862Z,76.56
2018-11-22T19:01:33.569Z,77.15
2018-11-22T19:06:36.336Z,77.10
2018-11-22T19:11:38.959Z,77.44
2018-11-22T19:16:41.368Z,77.30
2018-11-22T19:21:43.833Z,77.30
2018-11-22T19:26:46.277Z,78.06
2018-11-22T19:31:48.787Z,77.87
2018-11-22T19:36:51.222Z,77.95
2018-11-22T19:41:54.101Z,77.98
2018-11-22T19:46:56.769Z,77.79
2018-11-22T19:51:59.390Z,79.04
2018-11-22T19:57:01.817Z,78.90
2018-11-22T20:02:05.008Z,78.94
2018-11-22T20:07:07.430Z,78.79
2018-11-22T20:12:11.528Z,79.05
2018-11-22T20:17:14.589Z,79.16
2018-11-22T20:22:17.411Z,78.79
2018-11-22T20:27:19.967Z,79.48
2018-11-22T20:32:22.609Z,79.53
2018-11-22T20:37:25.030Z,80.05
2018-11-22T20:42:27.598Z,80.02
2018-11-22T20:47:30.392Z,80.09
2018-11-22T20:52:33.445Z,81.09
2018-11-22T20:57:36.477Z,80.60
2018-11-22T21:02:38.926Z,80.70
2018-11-22T21:07:42.290Z,81.11
2018-11-22T21:12:45.367Z,81.57
2018-11-22T21:17:49.250Z,81.60
2018-11-22T21:22:51.939Z,81.71
2018-11-22T21:27:54.381Z,82.28
2018-11-22T21:32:57.847Z,82.44
2018-11-22T21:38:01.173Z,82.47
2018-11-22T21:43:03.874Z,82.42
2018-11-22T21:48:06.269Z,82.31
2018-11-22T21:53:08.787Z,82.98
2018-11-22T21:58:11.258Z,83.23
2018-11-22T22:03:13.725Z,82.82
2018-11-22T22:08:16.120Z,82.73
2018-11-22T22:13:18.709Z,82.52
2018-11-22T22:18:21.407Z,82.49
2018-11-22T22:23:23.772Z,82.82
2018-11-22T22:28:26.142Z,82.18
2018-11-22T22:33:28.677Z,83.14
2018-11-22T22:38:31.082Z,83.11
2018-11-22T22:43:33.597Z,83.50
2018-11-22T22:48:36.104Z,83.48
2018-11-22T22:53:38.571Z,83.30
2018-11-22T22:58:40.969Z,83.00
2018-11-22T23:03:43.784Z,83.68
2018-11-22T23:08:46.265Z,82.96
2018-11-22T23:13:48.669Z,82.97
2018-11-22T23:18:51.249Z,82.80
2018-11-22T23:23:53.726Z,81.95
2018-11-22T23:28:56.111Z,82.17
2018-11-22T23:33:58.597Z,82.15
2018-11-22T23:39:00.976Z,82.79
2018-11-22T23:44:03.457Z,82.66
2018-11-22T23:49:05.870Z,83.57
2018-11-22T23:54:08.212Z,83.96
2018-11-22T23:59:10.644Z,84.07
